createdAt,value
2023-01-08T00:01:50.976Z,7.31
2023-01-08T00:04:20.780Z,7.30
2023-01-08T00:06:47.676Z,7.31
2023-01-08T00:09:14.562Z,7.32
2023-01-08T00:11:41.382Z,7.31
2023-01-08T00:14:08.196Z,7.32
2023-01-08T00:16:35.117Z,7.32
2023-01-08T00:19:01.965Z,7.32
2023-01-08T00:21:29.004Z,7.33
2023-01-08T00:23:55.842Z,7.33
2023-01-08T00:26:22.721Z,7.32
2023-01-08T00:28:51.790Z,7.33
2023-01-08T00:31:18.697Z,7.32
2023-01-08T00:33:45.631Z,7.31
2023-01-08T00:36:13.711Z,7.31
2023-01-08T00:38:40.542Z,7.29
2023-01-08T00:41:07.407Z,7.31
2023-01-08T00:43:34.283Z,7.30
2023-01-08T00:46:01.224Z,7.29
2023-01-08T00:48:28.134Z,7.29
2023-01-08T00:50:55.067Z,7.30
2023-01-08T00:53:22.038Z,7.30
2023-01-08T00:55:48.907Z,7.31
2023-01-08T00:58:15.733Z,7.30
2023-01-08T01:00:43.177Z,7.32
2023-01-08T01:03:10.027Z,7.33
2023-01-08T01:05:36.830Z,7.33
2023-01-08T01:08:03.757Z,7.32
2023-01-08T01:10:30.586Z,7.33
2023-01-08T01:12:57.333Z,7.35
2023-01-08T01:15:24.199Z,7.35
2023-01-08T01:17:50.982Z,7.35
2023-01-08T01:20:17.866Z,7.35
2023-01-08T01:22:44.812Z,7.36
2023-01-08T01:25:11.675Z,7.37
2023-01-08T01:27:38.511Z,7.38
2023-01-08T01:30:05.700Z,7.38
2023-01-08T01:32:32.584Z,7.38
2023-01-08T01:34:59.465Z,7.38
2023-01-08T01:37:26.437Z,7.41
2023-01-08T01:39:53.330Z,7.40
2023-01-08T01:42:38.780Z,7.41
2023-01-08T01:45:14.021Z,7.42
2023-01-08T01:47:40.986Z,7.42
2023-01-08T01:50:07.806Z,7.41
2023-01-08T01:52:37.714Z,7.42
2023-01-08T01:55:04.767Z,7.42
2023-01-08T01:57:31.928Z,7.42
2023-01-08T01:59:58.731Z,7.43
2023-01-08T02:02:25.787Z,7.44
2023-01-08T02:04:52.734Z,7.44
2023-01-08T02:07:28.731Z,7.44
2023-01-08T02:10:09.998Z,7.44
2023-01-08T02:12:39.409Z,7.44
2023-01-08T02:15:19.917Z,7.44
2023-01-08T02:18:08.984Z,7.44
2023-01-08T02:20:36.980Z,7.45
2023-01-08T02:23:22.798Z,7.45
2023-01-08T02:26:06.796Z,7.46
2023-01-08T02:28:38.603Z,7.45
2023-01-08T02:31:05.997Z,7.46
2023-01-08T02:33:33.107Z,7.47
2023-01-08T02:36:18.936Z,7.46
2023-01-08T02:38:50.598Z,7.47
2023-01-08T02:41:17.440Z,7.48
2023-01-08T02:43:48.595Z,7.50
2023-01-08T02:46:17.403Z,7.49
2023-01-08T02:48:51.752Z,7.49
2023-01-08T02:51:27.751Z,7.49
2023-01-08T02:53:55.649Z,7.50
2023-01-08T02:56:23.692Z,7.48
2023-01-08T02:58:50.731Z,7.49
2023-01-08T03:01:17.691Z,7.50
2023-01-08T03:03:46.216Z,7.50
2023-01-08T03:06:13.566Z,7.50
2023-01-08T03:08:41.072Z,7.50
2023-01-08T03:11:08.567Z,7.49
2023-01-08T03:13:54.074Z,7.49
2023-01-08T03:16:31.821Z,7.50
2023-01-08T03:19:05.691Z,7.50
2023-01-08T03:21:32.841Z,7.50
2023-01-08T03:23:59.549Z,7.50
2023-01-08T03:26:26.357Z,7.51
2023-01-08T03:28:53.815Z,7.51
2023-01-08T03:31:20.648Z,7.51
2023-01-08T03:33:47.455Z,7.49
2023-01-08T03:36:14.590Z,7.50
2023-01-08T03:38:42.676Z,7.49
2023-01-08T03:41:10.354Z,7.49
2023-01-08T03:43:37.169Z,7.50
2023-01-08T03:46:05.139Z,7.50
2023-01-08T03:48:32.317Z,7.50
2023-01-08T03:50:59.489Z,7.49
2023-01-08T03:53:26.340Z,7.49
2023-01-08T03:55:53.160Z,7.48
2023-01-08T03:58:19.866Z,7.49
2023-01-08T04:00:47.117Z,7.49
2023-01-08T04:03:13.849Z,7.49
2023-01-08T04:05:40.620Z,7.49
2023-01-08T04:08:07.407Z,7.49
2023-01-08T04:10:34.400Z,7.50
2023-01-08T04:13:01.151Z,7.50
2023-01-08T04:15:28.131Z,7.50
2023-01-08T04:17:55.064Z,7.50
2023-01-08T04:20:21.773Z,7.49
2023-01-08T04:22:48.545Z,7.48
2023-01-08T04:25:15.381Z,7.49
2023-01-08T04:27:42.214Z,7.49
2023-01-08T04:30:09.311Z,7.49
2023-01-08T04:32:36.080Z,7.49
2023-01-08T04:35:02.859Z,7.49
2023-01-08T04:37:29.670Z,7.49
2023-01-08T04:39:56.462Z,7.50
2023-01-08T04:42:23.180Z,7.49
2023-01-08T04:44:49.981Z,7.50
2023-01-08T04:47:16.727Z,7.50
2023-01-08T04:49:43.625Z,7.50
2023-01-08T04:52:10.380Z,7.50
2023-01-08T04:54:37.146Z,7.50
2023-01-08T04:57:03.871Z,7.51
2023-01-08T04:59:30.685Z,7.51
2023-01-08T05:01:57.600Z,7.51
2023-01-08T05:04:24.369Z,7.51
2023-01-08T05:06:51.168Z,7.52
2023-01-08T05:09:17.883Z,7.51
2023-01-08T05:11:44.654Z,7.52
2023-01-08T05:14:11.383Z,7.51
2023-01-08T05:16:38.158Z,7.51
2023-01-08T05:19:04.945Z,7.53
2023-01-08T05:21:31.768Z,7.51
2023-01-08T05:23:58.562Z,7.51
2023-01-08T05:26:25.364Z,7.51
2023-01-08T05:28:53.058Z,7.50
2023-01-08T05:31:19.913Z,7.50
2023-01-08T05:33:46.862Z,7.49
2023-01-08T05:36:13.726Z,7.49
2023-01-08T05:38:40.642Z,7.49
2023-01-08T05:41:07.445Z,7.49
2023-01-08T05:43:34.665Z,7.49
2023-01-08T05:46:01.722Z,7.49
2023-01-08T05:48:28.735Z,7.49
2023-01-08T05:50:55.577Z,7.49
2023-01-08T05:53:22.322Z,7.48
2023-01-08T05:55:49.202Z,7.49
2023-01-08T05:58:19.259Z,7.49
2023-01-08T06:00:46.225Z,7.49
2023-01-08T06:03:12.991Z,7.48
2023-01-08T06:05:39.818Z,7.46
2023-01-08T06:08:08.523Z,7.44
2023-01-08T06:10:37.376Z,7.44
2023-01-08T06:13:06.938Z,7.43
2023-01-08T06:15:33.734Z,7.42
2023-01-08T06:18:03.867Z,7.42
2023-01-08T06:20:30.630Z,7.41
2023-01-08T06:22:57.584Z,7.40
2023-01-08T06:25:24.908Z,7.40
2023-01-08T06:27:54.268Z,7.39
2023-01-08T06:30:21.057Z,7.39
2023-01-08T06:32:47.941Z,7.37
2023-01-08T06:35:14.745Z,7.36
2023-01-08T06:37:41.622Z,7.35
2023-01-08T06:40:08.740Z,7.34
2023-01-08T06:42:35.563Z,7.34
2023-01-08T06:45:02.427Z,7.34
2023-01-08T06:47:29.277Z,7.35
2023-01-08T06:49:56.105Z,7.34
2023-01-08T06:52:22.936Z,7.35
2023-01-08T06:54:49.790Z,7.33
2023-01-08T06:57:16.695Z,7.30
2023-01-08T06:59:43.745Z,7.29
2023-01-08T07:02:13.971Z,7.29
2023-01-08T07:04:41.032Z,7.27
2023-01-08T07:07:08.009Z,7.24
2023-01-08T07:09:35.604Z,7.24
2023-01-08T07:12:02.577Z,7.23
2023-01-08T07:14:29.438Z,7.21
2023-01-08T07:16:56.257Z,7.20
2023-01-08T07:19:23.270Z,7.19
2023-01-08T07:21:50.235Z,7.19
2023-01-08T07:24:17.140Z,7.18
2023-01-08T07:26:44.021Z,7.18
2023-01-08T07:29:10.812Z,7.18
2023-01-08T07:31:37.814Z,7.16
2023-01-08T07:34:06.011Z,7.16
2023-01-08T07:36:33.007Z,7.15
2023-01-08T07:39:01.162Z,7.15
2023-01-08T07:41:28.106Z,7.15
2023-01-08T07:43:55.911Z,7.14
2023-01-08T07:46:23.238Z,7.16
2023-01-08T07:48:50.146Z,7.16
2023-01-08T07:51:17.330Z,7.15
2023-01-08T07:53:46.639Z,7.17
2023-01-08T07:56:14.879Z,7.16
2023-01-08T07:58:41.868Z,7.17
2023-01-08T08:01:09.826Z,7.17
2023-01-08T08:03:37.839Z,7.18
2023-01-08T08:06:04.726Z,7.20
2023-01-08T08:08:31.729Z,7.21
2023-01-08T08:10:58.672Z,7.21
2023-01-08T08:13:25.487Z,7.23
2023-01-08T08:15:52.385Z,7.24
2023-01-08T08:18:19.304Z,7.25
2023-01-08T08:20:46.158Z,7.28
2023-01-08T08:23:14.049Z,7.29
2023-01-08T08:25:41.259Z,7.30
2023-01-08T08:28:08.462Z,7.32
2023-01-08T08:30:35.689Z,7.34
2023-01-08T08:33:05.088Z,7.36
2023-01-08T08:35:31.997Z,7.39
2023-01-08T08:37:58.866Z,7.41
2023-01-08T08:40:25.780Z,7.43
2023-01-08T08:42:59.108Z,7.45
2023-01-08T08:45:26.112Z,7.47
2023-01-08T08:47:52.960Z,7.49
2023-01-08T08:50:19.818Z,7.53
2023-01-08T08:52:47.117Z,7.54
2023-01-08T08:55:16.205Z,7.57
2023-01-08T08:57:43.485Z,7.60
2023-01-08T09:00:10.626Z,7.61
2023-01-08T09:02:37.637Z,7.62
2023-01-08T09:05:04.866Z,7.66
2023-01-08T09:07:31.799Z,7.67
2023-01-08T09:09:58.613Z,7.69
2023-01-08T09:12:25.453Z,7.71
2023-01-08T09:14:53.707Z,7.74
2023-01-08T09:17:21.711Z,7.76
2023-01-08T09:19:50.031Z,7.78
2023-01-08T09:22:17.000Z,7.81
2023-01-08T09:24:43.772Z,7.82
2023-01-08T09:27:11.284Z,7.83
2023-01-08T09:29:38.125Z,7.85
2023-01-08T09:41:35.925Z,8.05
2023-01-08T09:44:06.667Z,8.05
2023-01-08T09:46:35.981Z,8.06
2023-01-08T09:49:05.004Z,8.07
2023-01-08T09:51:36.963Z,8.07
2023-01-08T09:54:03.854Z,8.09
2023-01-08T09:56:30.727Z,8.10
2023-01-08T09:59:00.491Z,8.11
2023-01-08T10:01:28.538Z,8.14
2023-01-08T10:04:06.342Z,8.15
2023-01-08T10:06:33.428Z,8.16
2023-01-08T10:09:00.344Z,8.17
2023-01-08T10:11:28.407Z,8.19
2023-01-08T10:13:56.505Z,8.19
2023-01-08T10:16:30.754Z,8.21
2023-01-08T10:19:03.259Z,8.23
2023-01-08T10:21:36.180Z,8.22
2023-01-08T10:24:03.090Z,8.23
2023-01-08T10:26:32.746Z,8.25
2023-01-08T10:29:20.159Z,8.27
2023-01-08T10:32:01.580Z,8.27
2023-01-08T10:35:15.859Z,8.29
2023-01-08T10:42:52.911Z,8.31
2023-01-08T10:45:00.778Z,8.33
2023-01-08T10:55:04.926Z,8.39
2023-01-08T10:57:51.174Z,8.40
2023-01-08T11:04:18.314Z,8.43
2023-01-08T11:07:11.994Z,8.43
2023-01-08T11:20:42.285Z,8.49
2023-01-08T11:37:42.615Z,8.53
2023-01-08T11:40:29.058Z,8.56
2023-01-08T11:46:53.625Z,8.56
2023-01-08T11:50:28.921Z,8.52
2023-01-08T11:56:59.205Z,8.57
2023-01-08T11:59:56.710Z,8.57
2023-01-08T12:02:55.731Z,8.57
2023-01-08T12:05:22.903Z,8.58
2023-01-08T12:08:04.322Z,8.61
2023-01-08T12:10:38.861Z,8.60
2023-01-08T12:13:32.072Z,8.59
2023-01-08T12:16:04.422Z,8.60
2023-01-08T12:18:50.525Z,8.60
2023-01-08T12:21:22.642Z,8.61
2023-01-08T12:24:08.400Z,8.60
2023-01-08T12:26:39.607Z,8.59
2023-01-08T12:29:16.147Z,8.57
2023-01-08T12:32:03.070Z,8.59
2023-01-08T12:34:49.396Z,8.60
2023-01-08T12:37:21.667Z,8.58
2023-01-08T12:39:50.971Z,8.58
2023-01-08T12:42:19.830Z,8.57
2023-01-08T12:44:46.803Z,8.58
2023-01-08T12:47:14.644Z,8.59
2023-01-08T12:49:45.812Z,8.57
2023-01-08T12:52:16.226Z,8.58
2023-01-08T12:54:49.070Z,8.56
2023-01-08T12:57:24.460Z,8.57
2023-01-08T13:00:20.448Z,8.57
2023-01-08T13:02:52.879Z,8.55
2023-01-08T13:05:22.424Z,8.57
2023-01-08T13:08:29.710Z,8.56
2023-01-08T13:10:59.375Z,8.56
2023-01-08T13:13:26.391Z,8.54
2023-01-08T13:15:55.526Z,8.54
2023-01-08T13:18:29.843Z,8.54
2023-01-08T13:21:02.718Z,8.55
2023-01-08T13:23:36.240Z,8.52
2023-01-08T13:26:05.931Z,8.52
2023-01-08T13:29:03.169Z,8.52
2023-01-08T13:31:28.345Z,8.51
2023-01-08T13:33:58.622Z,8.51
2023-01-08T13:36:28.738Z,8.51
2023-01-08T13:39:01.775Z,8.52
2023-01-08T13:41:36.364Z,8.50
2023-01-08T13:44:13.992Z,8.50
2023-01-08T13:46:45.516Z,8.49
2023-01-08T13:49:31.458Z,8.48
2023-01-08T13:52:04.418Z,8.47
2023-01-08T13:54:42.733Z,8.48
2023-01-08T13:57:36.081Z,8.47
2023-01-08T14:00:07.123Z,8.46
2023-01-08T14:02:36.404Z,8.47
2023-01-08T14:05:03.472Z,8.46
2023-01-08T14:07:31.022Z,8.46
2023-01-08T14:10:06.498Z,8.46
2023-01-08T14:12:33.724Z,8.45
2023-01-08T14:15:09.172Z,8.45
2023-01-08T14:17:39.531Z,8.44
2023-01-08T14:20:09.446Z,8.43
2023-01-08T14:22:36.419Z,8.45
2023-01-08T14:25:06.810Z,8.43
2023-01-08T14:27:37.907Z,8.43
2023-01-08T14:30:39.476Z,8.43
2023-01-08T14:33:16.790Z,8.42
2023-01-08T14:35:49.173Z,8.42
2023-01-08T14:38:19.273Z,8.41
2023-01-08T14:40:54.907Z,8.40
2023-01-08T14:43:27.817Z,8.40
2023-01-08T14:45:59.801Z,8.39
2023-01-08T14:48:46.595Z,8.39
2023-01-08T14:51:29.561Z,8.38
2023-01-08T14:54:10.732Z,8.37
2023-01-08T14:56:58.110Z,8.37
2023-01-08T14:59:36.085Z,8.34
2023-01-08T15:02:03.540Z,8.33
2023-01-08T15:04:44.433Z,8.34
2023-01-08T15:07:32.041Z,8.33
2023-01-08T15:10:28.982Z,8.32
2023-01-08T15:13:05.894Z,8.31
2023-01-08T15:15:34.773Z,8.30
2023-01-08T15:18:16.968Z,8.30
2023-01-08T15:20:58.349Z,8.30
2023-01-08T15:24:06.250Z,8.27
2023-01-08T15:26:38.500Z,8.28
2023-01-08T15:29:14.777Z,8.27
2023-01-08T15:31:59.448Z,8.27
2023-01-08T15:34:44.922Z,8.27
2023-01-08T15:37:21.162Z,8.27
2023-01-08T15:39:49.444Z,8.26
2023-01-08T15:42:42.582Z,8.27
2023-01-08T15:45:25.373Z,8.27
2023-01-08T15:48:00.784Z,8.27
2023-01-08T15:50:41.834Z,8.26
2023-01-08T15:53:23.597Z,8.27
2023-01-08T15:56:02.932Z,8.27
2023-01-08T15:58:31.585Z,8.25
2023-01-08T16:01:09.986Z,8.25
2023-01-08T16:03:36.929Z,8.25
2023-01-08T16:06:08.602Z,8.25
2023-01-08T16:08:41.493Z,8.25
2023-01-08T16:11:14.863Z,8.27
2023-01-08T16:13:49.171Z,8.25
2023-01-08T16:16:16.218Z,8.25
2023-01-08T16:18:46.206Z,8.25
2023-01-08T16:21:17.693Z,8.25
2023-01-08T16:23:53.481Z,8.27
2023-01-08T16:26:30.686Z,8.27
2023-01-08T16:29:05.306Z,8.25
2023-01-08T16:31:33.671Z,8.27
2023-01-08T16:34:08.948Z,8.27
2023-01-08T16:36:38.684Z,8.27
2023-01-08T16:39:14.715Z,8.27
2023-01-08T16:41:44.911Z,8.29
2023-01-08T16:44:27.052Z,8.27
2023-01-08T16:46:57.607Z,8.27
2023-01-08T16:49:26.860Z,8.24
2023-01-08T16:54:47.337Z,8.21
2023-01-08T16:57:17.170Z,8.20
2023-01-08T16:59:46.541Z,8.20
2023-01-08T17:02:23.570Z,8.19
2023-01-08T17:04:52.751Z,8.18
2023-01-08T17:07:32.722Z,8.18
2023-01-08T17:10:06.144Z,8.17
2023-01-08T17:12:44.532Z,8.16
2023-01-08T17:15:13.786Z,8.15
2023-01-08T17:17:45.994Z,8.16
2023-01-08T17:20:18.880Z,8.14
2023-01-08T17:22:53.619Z,8.13
2023-01-08T17:25:22.789Z,8.14
2023-01-08T17:27:58.445Z,8.14
2023-01-08T17:30:39.390Z,8.13
2023-01-08T17:33:15.776Z,8.14
2023-01-08T17:35:56.457Z,8.13
2023-01-08T17:38:34.689Z,8.14
2023-01-08T17:41:05.087Z,8.14
2023-01-08T17:43:42.232Z,8.14
2023-01-08T17:46:15.721Z,8.14
2023-01-08T17:48:47.546Z,8.16
2023-01-08T17:51:20.434Z,8.16
2023-01-08T17:53:54.682Z,8.17
2023-01-08T17:56:23.003Z,8.18
2023-01-08T17:59:02.764Z,8.17
2023-01-08T18:01:34.409Z,8.19
2023-01-08T18:04:08.098Z,8.18
2023-01-08T18:06:35.363Z,8.19
2023-01-08T18:09:07.515Z,8.21
2023-01-08T18:11:41.017Z,8.22
2023-01-08T18:14:10.580Z,8.22
2023-01-08T18:16:45.819Z,8.21
2023-01-08T18:19:23.662Z,8.23
2023-01-08T18:21:52.829Z,8.22
2023-01-08T18:24:34.183Z,8.22
2023-01-08T18:27:01.452Z,8.22
2023-01-08T18:29:34.254Z,8.24
2023-01-08T18:32:17.371Z,8.23
2023-01-08T18:34:50.305Z,8.25
2023-01-08T18:37:19.300Z,8.27
2023-01-08T18:40:11.419Z,8.27
2023-01-08T18:42:38.699Z,8.27
2023-01-08T18:45:15.197Z,8.29
2023-01-08T18:47:46.408Z,8.29
2023-01-08T18:50:16.219Z,8.30
2023-01-08T18:52:48.560Z,8.30
2023-01-08T18:55:19.621Z,8.31
2023-01-08T18:57:53.740Z,8.31
2023-01-08T19:00:23.988Z,8.29
2023-01-08T19:02:53.254Z,8.28
2023-01-08T19:05:20.134Z,8.29
2023-01-08T19:08:05.419Z,8.29
2023-01-08T19:10:37.827Z,8.25
2023-01-08T19:13:07.083Z,8.23
2023-01-08T19:15:44.901Z,8.22
2023-01-08T19:18:30.403Z,8.20
2023-01-08T19:21:44.070Z,8.19
2023-01-08T19:24:00.933Z,8.17
2023-01-08T19:26:37.208Z,8.15
2023-01-08T19:29:15.250Z,8.14
2023-01-08T19:32:04.937Z,8.12
2023-01-08T19:34:45.175Z,8.11
2023-01-08T19:37:40.986Z,8.09
2023-01-08T19:40:37.564Z,8.06
2023-01-08T19:43:35.917Z,8.03
2023-01-08T19:46:37.557Z,8.00
2023-01-08T19:49:12.285Z,7.96
2023-01-08T19:55:23.480Z,7.88
2023-01-08T19:57:57.503Z,7.84
2023-01-08T20:00:55.137Z,7.80
2023-01-08T20:05:02.664Z,7.78
2023-01-08T20:07:04.213Z,7.73
2023-01-08T20:09:51.242Z,7.70
2023-01-08T20:12:23.368Z,7.65
2023-01-08T20:14:54.841Z,7.63
2023-01-08T20:17:27.172Z,7.59
2023-01-08T20:19:57.973Z,7.56
2023-01-08T20:22:29.694Z,7.51
2023-01-08T20:25:07.237Z,7.48
2023-01-08T20:27:39.329Z,7.43
2023-01-08T20:30:10.127Z,7.41
2023-01-08T20:35:32.944Z,7.32
2023-01-08T20:38:11.384Z,7.30
2023-01-08T20:40:50.236Z,7.29
2023-01-08T20:43:33.988Z,7.26
2023-01-08T20:46:05.200Z,7.23
2023-01-08T20:48:42.966Z,7.20
2023-01-08T20:51:42.384Z,7.18
2023-01-08T20:54:09.956Z,7.16
2023-01-08T20:56:38.422Z,7.12
2023-01-08T20:59:12.169Z,7.10
2023-01-08T21:01:39.260Z,7.07
2023-01-08T21:04:11.878Z,7.05
2023-01-08T21:06:46.189Z,7.02
2023-01-08T21:09:23.017Z,6.99
2023-01-08T21:11:59.419Z,6.97
2023-01-08T21:14:26.566Z,6.93
2023-01-08T21:16:53.547Z,6.91
2023-01-08T21:19:23.088Z,6.89
2023-01-08T21:21:50.075Z,6.87
2023-01-08T21:24:27.518Z,6.84
2023-01-08T21:26:56.937Z,6.80
2023-01-08T21:29:26.502Z,6.78
2023-01-08T21:31:53.565Z,6.76
2023-01-08T21:34:26.367Z,6.74
2023-01-08T21:36:53.527Z,6.71
2023-01-08T21:39:20.497Z,6.69
2023-01-08T21:42:06.066Z,6.67
2023-01-08T21:44:56.628Z,6.64
2023-01-08T21:47:23.586Z,6.63
2023-01-08T21:49:53.462Z,6.63
2023-01-08T21:52:55.853Z,6.61
2023-01-08T21:55:25.909Z,6.60
2023-01-08T21:58:00.884Z,6.59
2023-01-08T22:00:29.791Z,6.59
2023-01-08T22:02:58.765Z,6.57
2023-01-08T22:05:29.541Z,6.56
2023-01-08T22:07:58.867Z,6.56
2023-01-08T22:10:36.135Z,6.55
2023-01-08T22:13:09.552Z,6.55
2023-01-08T22:15:38.010Z,6.54
2023-01-08T22:18:07.564Z,6.52
2023-01-08T22:20:38.052Z,6.51
2023-01-08T22:23:07.381Z,6.50
2023-01-08T22:25:36.695Z,6.50
2023-01-08T22:28:07.972Z,6.50
2023-01-08T22:30:37.869Z,6.48
2023-01-08T22:33:09.390Z,6.47
2023-01-08T22:35:39.523Z,6.47
2023-01-08T22:38:06.530Z,6.46
2023-01-08T22:40:40.732Z,6.45
2023-01-08T22:43:09.954Z,6.44
2023-01-08T22:45:39.931Z,6.43
2023-01-08T22:48:09.196Z,6.43
2023-01-08T22:50:39.621Z,6.42
2023-01-08T22:53:08.777Z,6.41
2023-01-08T22:55:51.196Z,6.40
2023-01-08T22:58:18.307Z,6.39
2023-01-08T23:00:50.975Z,6.39
2023-01-08T23:03:22.417Z,6.38
2023-01-08T23:05:53.903Z,6.36
2023-01-08T23:08:26.012Z,6.35
2023-01-08T23:11:21.329Z,6.33
2023-01-08T23:13:51.015Z,6.32
2023-01-08T23:16:27.554Z,6.31
2023-01-08T23:19:09.959Z,6.30
2023-01-08T23:21:49.059Z,6.30
2023-01-08T23:24:23.119Z,6.29
2023-01-08T23:26:57.829Z,6.28
2023-01-08T23:29:31.901Z,6.28
2023-01-08T23:32:01.722Z,6.27
2023-01-08T23:34:37.539Z,6.26
2023-01-08T23:37:16.544Z,6.25
2023-01-08T23:40:50.933Z,6.24
2023-01-08T23:43:22.392Z,6.22
2023-01-08T23:48:55.513Z,6.20
2023-01-08T23:51:44.352Z,6.19
2023-01-08T23:54:20.566Z,6.18
2023-01-08T23:56:58.639Z,6.17
2023-01-08T23:59:29.103Z,6.17
